createdAt,value
2022-09-25T00:00:23.963Z,3.88
2022-09-25T00:01:21.403Z,4.05
2022-09-25T00:02:18.123Z,3.65
2022-09-25T00:03:16.124Z,4.00
2022-09-25T00:04:12.779Z,3.63
2022-09-25T00:05:09.567Z,3.58
2022-09-25T00:06:09.732Z,3.40
2022-09-25T00:07:06.321Z,3.13
2022-09-25T00:08:04.256Z,3.30
2022-09-25T00:09:06.822Z,3.15
2022-09-25T00:10:06.975Z,3.75
2022-09-25T00:11:13.257Z,2.85
2022-09-25T00:12:09.828Z,3.58
2022-09-25T00:13:06.405Z,3.75
2022-09-25T00:14:03.133Z,3.78
2022-09-25T00:14:59.801Z,3.30
2022-09-25T00:15:58.017Z,2.78
2022-09-25T00:16:54.752Z,3.35
2022-09-25T00:17:51.692Z,3.08
2022-09-25T00:19:07.319Z,3.33
2022-09-25T00:20:04.209Z,3.13
2022-09-25T00:21:01.553Z,2.92
2022-09-25T00:21:58.210Z,3.35
2022-09-25T00:22:54.888Z,3.15
2022-09-25T00:23:51.642Z,4.25
2022-09-25T00:24:48.781Z,3.67
2022-09-25T00:25:53.606Z,3.35
2022-09-25T00:26:50.315Z,3.38
2022-09-25T00:27:48.461Z,3.30
2022-09-25T00:28:45.114Z,3.53
2022-09-25T00:29:41.834Z,3.60
2022-09-25T00:30:40.711Z,3.90
2022-09-25T00:31:37.357Z,3.65
2022-09-25T00:32:34.196Z,3.65
2022-09-25T00:33:32.731Z,4.50
2022-09-25T00:34:29.429Z,4.68
2022-09-25T00:35:26.077Z,4.55
2022-09-25T00:36:22.748Z,4.63
2022-09-25T00:37:19.328Z,4.57
2022-09-25T00:38:15.942Z,4.70
2022-09-25T00:39:12.569Z,4.90
2022-09-25T00:40:09.951Z,4.20
2022-09-25T00:41:07.912Z,5.00
2022-09-25T00:42:04.610Z,3.38
2022-09-25T00:43:01.241Z,4.00
2022-09-25T00:43:59.240Z,3.47
2022-09-25T00:44:57.490Z,4.00
2022-09-25T00:45:54.132Z,3.50
2022-09-25T00:46:50.853Z,4.57
2022-09-25T00:47:47.441Z,4.75
2022-09-25T00:49:14.855Z,4.80
2022-09-25T00:50:21.583Z,4.10
2022-09-25T00:51:22.057Z,5.70
2022-09-25T00:52:18.900Z,4.75
2022-09-25T00:53:22.034Z,4.00
2022-09-25T00:54:33.318Z,5.05
2022-09-25T00:55:32.742Z,4.25
2022-09-25T00:56:34.723Z,4.45
2022-09-25T00:57:35.048Z,4.30
2022-09-25T00:58:35.664Z,2.55
2022-09-25T00:59:41.251Z,4.10
2022-09-25T01:00:37.940Z,4.20
2022-09-25T01:01:34.605Z,4.40
2022-09-25T01:02:35.084Z,4.88
2022-09-25T01:03:31.825Z,4.47
2022-09-25T01:04:33.838Z,4.90
2022-09-25T01:05:36.854Z,4.93
2022-09-25T01:06:35.128Z,4.85
2022-09-25T01:07:39.198Z,4.93
2022-09-25T01:08:37.957Z,5.28
2022-09-25T01:09:35.815Z,4.38
2022-09-25T01:10:32.855Z,5.07
2022-09-25T01:11:31.138Z,4.97
2022-09-25T01:12:28.101Z,5.20
2022-09-25T01:13:25.563Z,5.53
2022-09-25T01:14:22.686Z,5.30
2022-09-25T01:15:23.683Z,4.88
2022-09-25T01:16:43.559Z,5.40
2022-09-25T01:17:58.579Z,5.50
2022-09-25T01:19:01.879Z,5.25
2022-09-25T01:20:16.693Z,4.93
2022-09-25T01:21:43.279Z,5.40
2022-09-25T01:22:55.053Z,5.65
2022-09-25T01:24:10.684Z,5.32
2022-09-25T01:25:58.388Z,4.90
2022-09-25T01:27:01.762Z,5.28
2022-09-25T01:28:07.401Z,4.97
2022-09-25T01:29:27.269Z,5.10
2022-09-25T01:30:24.194Z,4.35
2022-09-25T01:31:40.428Z,5.18
2022-09-25T01:33:10.844Z,4.38
2022-09-25T01:34:34.221Z,4.38
2022-09-25T01:35:34.581Z,4.65
2022-09-25T01:36:42.230Z,4.50
2022-09-25T01:37:45.738Z,4.18
2022-09-25T01:38:50.211Z,4.40
2022-09-25T01:40:13.333Z,4.90
2022-09-25T01:41:34.146Z,4.85
2022-09-25T01:42:43.021Z,4.00
2022-09-25T01:43:52.594Z,4.22
2022-09-25T01:45:06.310Z,5.07
2022-09-25T01:46:11.897Z,4.90
2022-09-25T01:47:18.878Z,4.72
2022-09-25T01:48:20.429Z,4.68
2022-09-25T01:49:45.866Z,4.40
2022-09-25T01:50:51.369Z,4.53
2022-09-25T01:51:55.749Z,4.75
2022-09-25T01:52:57.231Z,4.70
2022-09-25T01:53:58.268Z,4.70
2022-09-25T01:55:06.936Z,4.55
2022-09-25T01:56:19.345Z,4.95
2022-09-25T01:57:26.026Z,5.00
2022-09-25T01:58:31.971Z,5.20
2022-09-25T01:59:44.353Z,5.30
2022-09-25T02:00:50.451Z,5.38
2022-09-25T02:01:47.976Z,4.95
2022-09-25T02:02:55.472Z,5.05
2022-09-25T02:04:03.816Z,4.50
2022-09-25T02:05:14.983Z,4.35
2022-09-25T02:06:17.489Z,4.18
2022-09-25T02:08:23.201Z,4.90
2022-09-25T02:09:26.658Z,4.28
2022-09-25T02:10:30.054Z,5.00
2022-09-25T02:11:32.938Z,4.47
2022-09-25T02:12:40.926Z,4.85
2022-09-25T02:14:02.983Z,4.70
2022-09-25T02:15:05.817Z,4.00
2022-09-25T02:16:10.120Z,4.65
2022-09-25T02:17:12.642Z,4.40
2022-09-25T02:19:46.054Z,4.40
2022-09-25T02:20:46.423Z,3.72
2022-09-25T02:21:55.556Z,4.28
2022-09-25T02:22:55.656Z,3.05
2022-09-25T02:24:15.835Z,4.50
2022-09-25T02:25:25.566Z,2.95
2022-09-25T02:26:35.269Z,3.55
2022-09-25T02:27:33.883Z,5.30
2022-09-25T02:28:30.834Z,4.13
2022-09-25T02:29:27.452Z,3.70
2022-09-25T02:30:24.181Z,4.18
2022-09-25T02:31:26.488Z,4.00
2022-09-25T02:32:29.409Z,3.83
2022-09-25T02:33:26.629Z,3.42
2022-09-25T02:34:23.897Z,4.53
2022-09-25T02:35:21.218Z,4.65
2022-09-25T02:36:20.349Z,4.38
2022-09-25T02:37:18.405Z,4.15
2022-09-25T02:38:16.092Z,5.32
2022-09-25T02:39:16.048Z,5.85
2022-09-25T02:40:12.991Z,5.85
2022-09-25T02:41:17.911Z,4.63
2022-09-25T02:42:14.887Z,4.80
2022-09-25T02:43:38.403Z,4.05
2022-09-25T02:45:10.510Z,4.38
2022-09-25T02:46:45.783Z,5.45
2022-09-25T02:48:04.053Z,4.25
2022-09-25T02:49:35.665Z,3.95
2022-09-25T02:50:41.244Z,5.40
2022-09-25T02:51:52.227Z,4.35
2022-09-25T02:53:30.793Z,5.10
2022-09-25T02:55:02.817Z,5.65
2022-09-25T02:56:45.982Z,5.60
2022-09-25T02:57:53.449Z,4.13
2022-09-25T02:58:54.979Z,4.35
2022-09-25T02:59:59.401Z,5.07
2022-09-25T03:00:57.892Z,5.53
2022-09-25T03:01:57.020Z,6.35
2022-09-25T03:02:59.626Z,4.60
2022-09-25T03:03:59.706Z,5.00
2022-09-25T03:04:58.892Z,6.13
2022-09-25T03:05:57.661Z,5.65
2022-09-25T03:06:54.672Z,6.15
2022-09-25T03:08:12.220Z,5.97
2022-09-25T03:09:11.919Z,7.07
2022-09-25T03:10:09.055Z,5.40
2022-09-25T03:11:14.114Z,4.85
2022-09-25T03:12:10.739Z,6.10
2022-09-25T03:13:18.854Z,5.20
2022-09-25T03:14:15.477Z,6.82
2022-09-25T03:15:13.197Z,6.55
2022-09-25T03:16:20.347Z,6.68
2022-09-25T03:17:17.650Z,5.72
2022-09-25T03:18:14.760Z,5.22
2022-09-25T03:19:11.913Z,5.25
2022-09-25T03:20:10.038Z,5.10
2022-09-25T03:21:06.736Z,4.55
2022-09-25T03:22:03.510Z,5.18
2022-09-25T03:23:00.104Z,6.05
2022-09-25T03:23:57.098Z,4.40
2022-09-25T03:24:54.085Z,5.03
2022-09-25T03:25:54.061Z,6.35
2022-09-25T03:26:51.234Z,5.70
2022-09-25T03:27:47.819Z,6.88
2022-09-25T03:28:44.580Z,5.82
2022-09-25T03:29:42.733Z,6.80
2022-09-25T03:30:41.099Z,8.00
2022-09-25T03:31:37.963Z,8.43
2022-09-25T03:32:34.721Z,7.82
2022-09-25T03:33:38.084Z,6.60
2022-09-25T03:34:34.671Z,7.38
2022-09-25T03:35:31.229Z,6.97
2022-09-25T03:36:30.082Z,6.85
2022-09-25T03:37:26.679Z,6.20
2022-09-25T03:38:23.298Z,5.90
2022-09-25T03:39:19.939Z,5.38
2022-09-25T03:40:16.788Z,5.93
2022-09-25T03:41:15.705Z,4.75
2022-09-25T03:42:12.422Z,5.78
2022-09-25T03:44:05.047Z,5.47
2022-09-25T03:45:02.265Z,6.47
2022-09-25T03:45:58.983Z,6.82
2022-09-25T03:46:55.614Z,6.25
2022-09-25T03:47:52.201Z,6.35
2022-09-25T03:48:49.057Z,5.60
2022-09-25T03:49:45.656Z,5.57
2022-09-25T03:50:42.312Z,4.82
2022-09-25T03:51:39.160Z,6.20
2022-09-25T03:52:35.752Z,5.78
2022-09-25T03:53:33.655Z,5.82
2022-09-25T03:54:30.380Z,6.00
2022-09-25T03:55:27.020Z,6.28
2022-09-25T03:56:26.629Z,5.07
2022-09-25T03:57:23.245Z,5.50
2022-09-25T03:58:20.441Z,6.20
2022-09-25T03:59:17.042Z,6.43
2022-09-25T04:00:14.732Z,5.38
2022-09-25T04:01:11.680Z,5.20
2022-09-25T04:02:08.879Z,4.55
2022-09-25T04:03:05.585Z,6.70
2022-09-25T04:04:03.381Z,6.18
2022-09-25T04:05:00.262Z,6.82
2022-09-25T04:05:59.019Z,6.53
2022-09-25T04:06:56.229Z,6.80
2022-09-25T04:07:52.871Z,5.72
2022-09-25T04:08:50.141Z,5.32
2022-09-25T04:09:46.755Z,5.82
2022-09-25T04:10:43.600Z,6.10
2022-09-25T04:11:40.217Z,5.57
2022-09-25T04:12:36.829Z,6.40
2022-09-25T04:13:36.495Z,6.30
2022-09-25T04:14:33.105Z,5.20
2022-09-25T04:15:30.250Z,4.75
2022-09-25T04:16:28.087Z,5.82
2022-09-25T04:17:24.783Z,6.25
2022-09-25T04:18:21.360Z,5.45
2022-09-25T04:19:18.009Z,6.70
2022-09-25T04:20:14.888Z,6.72
2022-09-25T04:21:13.328Z,6.57
2022-09-25T04:22:09.913Z,6.53
2022-09-25T04:23:06.532Z,5.10
2022-09-25T04:24:21.673Z,5.28
2022-09-25T04:25:25.690Z,5.95
2022-09-25T04:26:22.577Z,7.00
2022-09-25T04:27:22.914Z,7.38
2022-09-25T04:28:21.149Z,6.78
2022-09-25T04:29:18.104Z,8.00
2022-09-25T04:30:14.747Z,7.10
2022-09-25T04:31:11.353Z,6.90
2022-09-25T04:32:27.048Z,5.35
2022-09-25T04:33:42.147Z,6.63
2022-09-25T04:34:38.726Z,7.50
2022-09-25T04:35:35.368Z,5.88
2022-09-25T04:36:32.591Z,5.95
2022-09-25T04:37:29.256Z,5.78
2022-09-25T04:38:25.834Z,6.50
2022-09-25T04:39:22.517Z,6.22
2022-09-25T04:40:19.280Z,5.35
2022-09-25T04:41:17.752Z,5.85
2022-09-25T04:42:15.493Z,8.65
2022-09-25T04:43:12.103Z,7.10
2022-09-25T04:44:08.742Z,8.35
2022-09-25T04:45:06.146Z,8.32
2022-09-25T04:46:05.092Z,6.85
2022-09-25T04:47:01.753Z,6.10
2022-09-25T04:48:00.322Z,5.95
2022-09-25T04:48:57.034Z,6.15
2022-09-25T04:49:53.644Z,7.43
2022-09-25T04:50:51.678Z,7.50
2022-09-25T04:51:48.344Z,7.60
2022-09-25T04:52:44.925Z,5.05
2022-09-25T04:53:41.938Z,5.55
2022-09-25T04:54:38.489Z,5.30
2022-09-25T04:55:35.089Z,5.53
2022-09-25T04:56:31.774Z,5.57
2022-09-25T04:57:56.551Z,6.28
2022-09-25T04:58:46.548Z,5.10
2022-09-25T04:59:43.281Z,6.22
2022-09-25T05:00:41.044Z,6.50
2022-09-25T05:01:38.559Z,6.03
2022-09-25T05:02:35.379Z,6.95
2022-09-25T05:03:32.201Z,5.82
2022-09-25T05:04:28.873Z,5.88
2022-09-25T05:05:28.257Z,6.30
2022-09-25T05:06:27.010Z,5.63
2022-09-25T05:07:23.616Z,5.68
2022-09-25T05:08:20.308Z,6.13
2022-09-25T05:09:16.967Z,5.13
2022-09-25T05:10:14.713Z,6.07
2022-09-25T05:11:11.500Z,5.75
2022-09-25T05:12:08.206Z,6.22
2022-09-25T05:13:05.377Z,6.03
2022-09-25T05:14:02.452Z,5.68
2022-09-25T05:14:59.093Z,5.30
2022-09-25T05:15:56.439Z,6.88
2022-09-25T05:16:53.185Z,5.00
2022-09-25T05:17:50.141Z,5.18
2022-09-25T05:18:46.807Z,5.07
2022-09-25T05:19:43.446Z,6.22
2022-09-25T05:20:40.096Z,6.25
2022-09-25T05:21:36.819Z,6.13
2022-09-25T05:22:33.439Z,5.35
2022-09-25T05:23:30.395Z,6.00
2022-09-25T05:24:27.155Z,6.28
2022-09-25T05:25:27.927Z,5.93
2022-09-25T05:26:24.789Z,5.80
2022-09-25T05:27:22.598Z,5.95
2022-09-25T05:28:19.210Z,5.25
2022-09-25T05:29:15.833Z,6.50
2022-09-25T05:30:12.872Z,6.28
2022-09-25T05:31:09.976Z,5.97
2022-09-25T05:32:06.910Z,5.72
2022-09-25T05:33:03.600Z,5.75
2022-09-25T05:34:00.203Z,6.20
2022-09-25T05:34:56.844Z,5.82
2022-09-25T05:35:53.474Z,5.72
2022-09-25T05:36:50.453Z,5.03
2022-09-25T05:37:47.289Z,5.70
2022-09-25T05:38:43.881Z,5.85
2022-09-25T05:39:40.474Z,5.32
2022-09-25T05:40:39.389Z,5.25
2022-09-25T05:41:36.382Z,6.00
2022-09-25T05:42:33.476Z,5.90
2022-09-25T05:43:30.156Z,5.47
2022-09-25T05:44:28.429Z,5.43
2022-09-25T05:45:25.206Z,4.95
2022-09-25T05:46:21.833Z,5.88
2022-09-25T05:47:18.776Z,5.30
2022-09-25T05:48:16.279Z,5.80
2022-09-25T05:49:12.962Z,5.20
2022-09-25T05:50:16.000Z,5.65
2022-09-25T05:51:12.785Z,4.97
2022-09-25T05:52:09.362Z,5.57
2022-09-25T05:53:06.228Z,5.18
2022-09-25T05:54:02.847Z,5.40
2022-09-25T05:54:59.445Z,5.07
2022-09-25T05:55:59.871Z,5.47
2022-09-25T05:56:56.637Z,5.13
2022-09-25T05:57:53.273Z,5.38
2022-09-25T05:58:49.954Z,4.40
2022-09-25T05:59:46.633Z,4.55
2022-09-25T06:00:43.490Z,4.25
2022-09-25T06:01:41.303Z,4.75
2022-09-25T06:02:38.050Z,4.90
2022-09-25T06:03:35.054Z,4.72
2022-09-25T06:04:31.782Z,5.10
2022-09-25T06:05:28.747Z,4.63
2022-09-25T06:06:27.577Z,5.10
2022-09-25T06:07:24.382Z,4.68
2022-09-25T06:08:20.971Z,4.60
2022-09-25T06:09:17.528Z,5.50
2022-09-25T06:10:14.209Z,5.07
2022-09-25T06:11:11.563Z,4.47
2022-09-25T06:12:08.147Z,4.78
2022-09-25T06:13:05.270Z,4.20
2022-09-25T06:14:02.844Z,4.35
2022-09-25T06:14:59.494Z,4.65
2022-09-25T06:15:57.227Z,4.75
2022-09-25T06:16:54.545Z,4.70
2022-09-25T06:17:51.557Z,4.90
2022-09-25T06:18:48.247Z,4.40
2022-09-25T06:19:44.848Z,5.03
2022-09-25T06:20:41.460Z,4.63
2022-09-25T06:21:38.020Z,4.80
2022-09-25T06:22:34.622Z,4.97
2022-09-25T06:23:31.847Z,4.45
2022-09-25T06:24:28.511Z,4.45
2022-09-25T06:25:27.393Z,5.28
2022-09-25T06:26:25.902Z,4.60
2022-09-25T06:27:22.542Z,5.32
2022-09-25T06:28:19.195Z,6.15
2022-09-25T06:29:15.873Z,5.82
2022-09-25T06:30:12.847Z,5.88
2022-09-25T06:31:10.122Z,5.05
2022-09-25T06:32:06.838Z,4.97
2022-09-25T06:33:09.617Z,5.30
2022-09-25T06:34:06.524Z,5.72
2022-09-25T06:35:04.419Z,6.75
2022-09-25T06:36:01.225Z,6.60
2022-09-25T06:37:00.489Z,6.05
2022-09-25T06:37:59.233Z,6.07
2022-09-25T06:38:56.229Z,5.68
2022-09-25T06:39:52.917Z,5.80
2022-09-25T06:40:49.581Z,6.20
2022-09-25T06:41:46.342Z,9.25
2022-09-25T06:42:42.962Z,11.00
2022-09-25T06:43:39.571Z,7.65
2022-09-25T06:44:36.175Z,11.10
2022-09-25T06:45:34.580Z,15.20
2022-09-25T06:46:31.187Z,157.93
2022-09-25T06:47:27.926Z,178.07
2022-09-25T06:48:24.635Z,60.95
2022-09-25T06:49:22.011Z,15.00
2022-09-25T06:50:18.674Z,41.72
2022-09-25T06:51:15.224Z,37.45
2022-09-25T06:52:12.496Z,55.47
2022-09-25T06:53:11.268Z,17.20
2022-09-25T06:54:08.074Z,8.40
2022-09-25T06:55:05.084Z,26.02
2022-09-25T06:56:02.599Z,124.45
2022-09-25T06:56:59.198Z,112.80
2022-09-25T06:57:55.830Z,155.73
2022-09-25T06:58:52.519Z,89.32
2022-09-25T06:59:49.146Z,29.02
2022-09-25T07:00:47.563Z,31.48
2022-09-25T07:01:44.296Z,22.13
2022-09-25T07:02:59.588Z,91.97
2022-09-25T07:03:56.326Z,12.07
2022-09-25T07:04:52.939Z,11.60
2022-09-25T07:05:49.734Z,15.27
2022-09-25T07:06:47.259Z,7.55
2022-09-25T07:07:44.461Z,7.15
2022-09-25T07:08:43.680Z,17.92
2022-09-25T07:09:40.294Z,22.33
2022-09-25T07:10:36.899Z,15.15
2022-09-25T07:11:33.502Z,7.70
2022-09-25T07:12:30.152Z,6.78
2022-09-25T07:13:30.062Z,9.95
2022-09-25T07:14:26.843Z,16.33
2022-09-25T07:15:23.417Z,5.68
2022-09-25T07:16:21.458Z,5.28
2022-09-25T07:17:18.088Z,9.63
2022-09-25T07:18:14.719Z,13.40
2022-09-25T07:19:11.323Z,8.73
2022-09-25T07:20:08.375Z,5.25
2022-09-25T07:21:13.839Z,12.57
2022-09-25T07:22:11.937Z,7.88
2022-09-25T07:23:08.624Z,6.00
2022-09-25T07:24:06.111Z,5.90
2022-09-25T07:25:02.701Z,6.45
2022-09-25T07:26:13.260Z,6.93
2022-09-25T07:27:09.826Z,7.43
2022-09-25T07:28:07.499Z,9.00
2022-09-25T07:29:06.360Z,5.07
2022-09-25T07:30:04.641Z,6.22
2022-09-25T07:31:11.124Z,7.00
2022-09-25T07:32:07.844Z,5.68
2022-09-25T07:33:04.701Z,4.97
2022-09-25T07:34:08.833Z,4.15
2022-09-25T07:35:05.576Z,4.65
2022-09-25T07:36:02.584Z,4.30
2022-09-25T07:36:59.323Z,5.15
2022-09-25T07:37:57.447Z,6.97
2022-09-25T07:38:54.673Z,5.93
2022-09-25T07:39:51.318Z,4.68
2022-09-25T07:40:47.975Z,4.38
2022-09-25T07:41:44.638Z,3.92
2022-09-25T07:42:42.001Z,3.78
2022-09-25T07:43:38.824Z,3.90
2022-09-25T07:44:38.167Z,3.78
2022-09-25T07:45:35.911Z,6.15
2022-09-25T07:46:32.635Z,3.72
2022-09-25T07:47:29.236Z,3.95
2022-09-25T07:48:27.161Z,3.90
2022-09-25T07:49:24.089Z,3.40
2022-09-25T07:50:20.732Z,3.28
2022-09-25T07:51:18.060Z,4.20
2022-09-25T07:52:14.793Z,5.07
2022-09-25T07:53:12.226Z,4.18
2022-09-25T07:54:09.058Z,4.53
2022-09-25T07:55:06.602Z,3.40
2022-09-25T07:56:06.916Z,5.72
2022-09-25T07:57:03.860Z,4.15
2022-09-25T07:58:00.426Z,4.07
2022-09-25T07:58:59.042Z,7.38
2022-09-25T07:59:55.754Z,4.05
2022-09-25T08:00:54.443Z,5.05
2022-09-25T08:01:53.873Z,11.82
2022-09-25T08:02:58.934Z,6.88
2022-09-25T08:03:55.889Z,3.45
2022-09-25T08:04:53.006Z,4.07
2022-09-25T08:06:01.057Z,3.65
2022-09-25T08:07:00.969Z,3.72
2022-09-25T08:07:57.556Z,3.78
2022-09-25T08:08:54.264Z,3.80
2022-09-25T08:09:50.879Z,3.42
2022-09-25T08:10:47.445Z,3.40
2022-09-25T08:11:44.201Z,3.17
2022-09-25T08:12:41.038Z,3.30
2022-09-25T08:13:38.793Z,2.85
2022-09-25T08:14:35.385Z,3.83
2022-09-25T08:15:32.035Z,3.90
2022-09-25T08:16:28.749Z,3.38
2022-09-25T08:17:31.349Z,3.53
2022-09-25T08:18:28.009Z,4.38
2022-09-25T08:19:24.654Z,3.95
2022-09-25T08:20:21.494Z,4.55
2022-09-25T08:21:20.378Z,3.88
2022-09-25T08:22:17.014Z,3.13
2022-09-25T08:23:13.673Z,3.20
2022-09-25T08:24:10.985Z,4.40
2022-09-25T08:25:08.091Z,3.47
2022-09-25T08:26:04.671Z,3.80
2022-09-25T08:27:01.266Z,5.10
2022-09-25T08:27:57.972Z,5.20
2022-09-25T08:28:55.483Z,3.58
2022-09-25T08:29:52.073Z,2.85
2022-09-25T08:30:49.052Z,4.65
2022-09-25T08:31:45.801Z,4.07
2022-09-25T08:32:42.410Z,4.72
2022-09-25T08:33:40.380Z,5.93
2022-09-25T08:34:41.094Z,3.08
2022-09-25T08:35:42.586Z,3.33
2022-09-25T08:36:39.190Z,6.38
2022-09-25T08:37:41.667Z,3.92
2022-09-25T08:39:34.707Z,4.00
2022-09-25T08:40:33.926Z,3.20
2022-09-25T08:41:44.366Z,3.33
2022-09-25T08:42:41.149Z,7.28
2022-09-25T08:43:43.516Z,3.97
2022-09-25T08:45:02.436Z,4.70
2022-09-25T08:46:23.190Z,3.42
2022-09-25T08:47:43.975Z,8.00
2022-09-25T08:49:06.185Z,4.55
2022-09-25T08:50:23.603Z,6.22
2022-09-25T08:51:21.637Z,4.57
2022-09-25T08:52:21.512Z,3.13
2022-09-25T08:53:25.057Z,2.67
2022-09-25T08:54:27.274Z,5.53
2022-09-25T08:55:57.853Z,8.77
2022-09-25T08:57:19.668Z,12.82
2022-09-25T08:58:47.687Z,3.75
2022-09-25T08:59:48.838Z,3.60
2022-09-25T09:00:45.742Z,2.90
2022-09-25T09:01:42.569Z,5.50
2022-09-25T09:02:47.091Z,4.78
2022-09-25T09:03:53.869Z,6.72
2022-09-25T09:04:56.591Z,5.82
2022-09-25T09:06:01.277Z,3.38
2022-09-25T09:07:25.681Z,2.20
2022-09-25T09:08:25.648Z,2.60
2022-09-25T09:09:29.851Z,2.58
2022-09-25T09:10:46.437Z,3.72
2022-09-25T09:12:04.322Z,5.88
2022-09-25T09:13:13.700Z,3.30
2022-09-25T09:14:17.647Z,3.10
2022-09-25T09:15:42.456Z,2.42
2022-09-25T09:16:42.507Z,2.42
2022-09-25T09:17:42.595Z,5.28
2022-09-25T09:18:41.310Z,11.30
2022-09-25T09:19:38.350Z,3.90
2022-09-25T09:20:50.042Z,3.50
2022-09-25T09:22:12.348Z,2.58
2022-09-25T09:23:16.755Z,2.53
2022-09-25T09:24:18.946Z,2.58
2022-09-25T09:25:29.620Z,2.63
2022-09-25T09:26:41.569Z,2.15
2022-09-25T09:28:21.438Z,2.03
2022-09-25T09:29:27.054Z,2.13
2022-09-25T09:30:31.971Z,2.58
2022-09-25T09:31:56.707Z,2.50
2022-09-25T09:32:58.688Z,2.13
2022-09-25T09:34:46.455Z,2.40
2022-09-25T09:35:46.634Z,2.05
2022-09-25T09:36:53.007Z,3.47
2022-09-25T09:38:05.142Z,3.35
2022-09-25T09:39:16.905Z,3.00
2022-09-25T09:40:51.834Z,2.75
2022-09-25T09:41:54.789Z,2.15
2022-09-25T09:43:03.829Z,2.42
2022-09-25T09:44:19.367Z,2.33
2022-09-25T09:45:36.960Z,2.47
2022-09-25T09:46:48.943Z,2.15
2022-09-25T09:47:57.447Z,2.13
2022-09-25T09:49:14.262Z,2.50
2022-09-25T09:50:52.312Z,2.33
2022-09-25T09:52:14.580Z,1.85
2022-09-25T09:53:37.348Z,2.10
2022-09-25T09:54:43.089Z,2.30
2022-09-25T09:55:47.084Z,2.03
2022-09-25T09:56:47.855Z,2.38
2022-09-25T09:57:51.269Z,2.50
2022-09-25T09:58:58.440Z,2.13
2022-09-25T10:00:07.397Z,2.10
2022-09-25T10:01:16.256Z,2.30
2022-09-25T10:02:30.783Z,1.77
2022-09-25T10:03:32.688Z,1.92
2022-09-25T10:04:38.108Z,2.40
2022-09-25T10:05:43.889Z,2.13
2022-09-25T10:07:04.331Z,2.67
2022-09-25T10:08:01.267Z,2.55
2022-09-25T10:08:57.887Z,2.38
2022-09-25T10:09:56.790Z,2.72
2022-09-25T10:10:55.006Z,2.20
2022-09-25T10:11:59.870Z,2.80
2022-09-25T10:12:56.893Z,2.47
2022-09-25T10:13:53.925Z,2.40
2022-09-25T10:14:51.816Z,2.20
2022-09-25T10:16:00.427Z,2.20
2022-09-25T10:16:57.529Z,1.98
2022-09-25T10:17:57.672Z,2.40
2022-09-25T10:19:04.163Z,2.35
2022-09-25T10:20:04.792Z,1.70
2022-09-25T10:21:11.391Z,1.80
2022-09-25T10:22:16.992Z,1.77
2022-09-25T10:23:53.508Z,2.00
2022-09-25T10:24:52.982Z,1.80
2022-09-25T10:25:55.126Z,1.88
2022-09-25T10:26:52.660Z,1.90
2022-09-25T10:27:49.755Z,1.90
2022-09-25T10:28:46.834Z,2.03
2022-09-25T10:29:43.472Z,2.00
2022-09-25T10:30:46.581Z,2.40
2022-09-25T10:31:43.400Z,2.28
2022-09-25T10:33:13.314Z,2.08
2022-09-25T10:34:12.764Z,2.65
2022-09-25T10:35:18.298Z,2.72
2022-09-25T10:36:29.211Z,2.10
2022-09-25T10:37:34.833Z,2.53
2022-09-25T10:38:39.300Z,2.72
2022-09-25T10:39:44.650Z,2.13
2022-09-25T10:40:46.646Z,2.28
2022-09-25T10:41:44.408Z,2.92
2022-09-25T10:42:42.296Z,1.67
2022-09-25T10:44:20.684Z,1.67
2022-09-25T10:45:23.019Z,1.70
2022-09-25T10:47:00.098Z,2.00
2022-09-25T10:48:15.380Z,2.28
2022-09-25T10:49:38.748Z,2.08
2022-09-25T10:50:36.994Z,2.00
2022-09-25T10:51:33.677Z,2.25
2022-09-25T10:52:48.248Z,2.20
2022-09-25T10:53:46.786Z,2.40
2022-09-25T10:54:45.729Z,2.10
2022-09-25T10:55:51.140Z,2.63
2022-09-25T10:56:49.274Z,2.28
2022-09-25T10:57:47.863Z,1.77
2022-09-25T10:58:44.449Z,2.00
2022-09-25T10:59:51.013Z,2.08
2022-09-25T11:00:59.566Z,2.08
2022-09-25T11:01:56.539Z,2.00
2022-09-25T11:03:00.514Z,2.33
2022-09-25T11:03:58.542Z,1.65
2022-09-25T11:04:57.118Z,2.17
2022-09-25T11:06:04.132Z,1.88
2022-09-25T11:07:08.141Z,2.03
2022-09-25T11:08:07.951Z,1.77
2022-09-25T11:09:12.552Z,1.80
2022-09-25T11:10:23.853Z,2.17
2022-09-25T11:11:26.927Z,2.40
2022-09-25T11:12:26.603Z,2.00
2022-09-25T11:13:27.150Z,2.13
2022-09-25T11:14:28.735Z,2.28
2022-09-25T11:15:27.791Z,2.07
2022-09-25T11:16:51.065Z,2.38
2022-09-25T11:17:51.716Z,2.20
2022-09-25T11:19:04.937Z,2.30
2022-09-25T11:20:16.773Z,2.80
2022-09-25T11:21:26.010Z,3.75
2022-09-25T11:22:36.233Z,3.33
2022-09-25T11:23:43.066Z,2.70
2022-09-25T11:24:47.152Z,2.13
2022-09-25T11:25:53.740Z,3.20
2022-09-25T11:27:04.969Z,2.28
2022-09-25T11:28:13.306Z,2.60
2022-09-25T11:29:25.627Z,2.10
2022-09-25T11:30:24.047Z,2.25
2022-09-25T11:31:44.898Z,2.40
2022-09-25T11:33:00.213Z,2.83
2022-09-25T11:34:17.188Z,2.17
2022-09-25T11:35:30.555Z,2.53
2022-09-25T11:37:00.416Z,3.78
2022-09-25T11:38:06.097Z,3.80
2022-09-25T11:39:28.616Z,5.18
2022-09-25T11:41:07.680Z,7.35
2022-09-25T11:42:14.660Z,6.25
2022-09-25T11:43:15.425Z,16.10
2022-09-25T11:44:34.328Z,10.48
2022-09-25T11:45:36.823Z,12.73
2022-09-25T11:46:51.339Z,15.88
2022-09-25T11:47:58.767Z,12.38
2022-09-25T11:49:12.402Z,5.00
2022-09-25T11:50:16.085Z,5.00
2022-09-25T11:51:18.661Z,6.53
2022-09-25T11:53:02.636Z,3.42
2022-09-25T11:54:34.557Z,10.85
2022-09-25T11:55:54.544Z,20.88
2022-09-25T11:57:09.238Z,5.97
2022-09-25T11:58:15.050Z,10.90
2022-09-25T11:59:38.496Z,45.85
2022-09-25T12:00:45.410Z,41.50
2022-09-25T12:02:03.749Z,45.03
2022-09-25T12:03:15.957Z,11.25
2022-09-25T12:04:57.024Z,40.35
2022-09-25T12:06:16.808Z,19.33
2022-09-25T12:07:22.469Z,33.60
2022-09-25T12:08:57.289Z,53.30
2022-09-25T12:10:24.325Z,33.55
2022-09-25T12:11:23.777Z,25.70
2022-09-25T12:12:36.662Z,46.63
2022-09-25T12:13:49.485Z,31.02
2022-09-25T12:14:55.056Z,66.55
2022-09-25T12:16:07.646Z,27.13
2022-09-25T12:17:15.137Z,15.93
2022-09-25T12:18:43.948Z,21.92
2022-09-25T12:20:15.700Z,15.00
2022-09-25T12:21:34.203Z,6.32
2022-09-25T12:22:46.225Z,3.72
2022-09-25T12:24:03.727Z,15.32
2022-09-25T12:25:03.384Z,14.63
2022-09-25T12:26:05.827Z,15.30
2022-09-25T12:27:03.661Z,12.00
2022-09-25T12:28:16.477Z,5.68
2022-09-25T12:29:26.172Z,8.27
2022-09-25T12:30:27.249Z,6.53
2022-09-25T12:31:39.657Z,4.90
2022-09-25T12:32:57.352Z,9.88
2022-09-25T12:34:06.242Z,5.78
2022-09-25T12:35:23.957Z,6.20
2022-09-25T12:36:22.914Z,12.63
2022-09-25T12:37:43.064Z,5.05
2022-09-25T12:39:08.936Z,9.02
2022-09-25T12:40:16.595Z,9.05
2022-09-25T12:41:40.827Z,5.53
2022-09-25T12:42:50.337Z,4.90
2022-09-25T12:44:08.917Z,4.55
2022-09-25T12:45:20.213Z,3.47
2022-09-25T12:46:22.743Z,3.47
2022-09-25T12:47:50.448Z,3.03
2022-09-25T12:49:00.922Z,4.60
2022-09-25T12:50:10.166Z,4.03
2022-09-25T12:51:35.125Z,3.20
2022-09-25T12:52:45.096Z,2.35
2022-09-25T12:54:13.960Z,2.25
2022-09-25T12:55:18.877Z,2.05
2022-09-25T12:56:24.703Z,2.40
2022-09-25T12:57:31.767Z,3.22
2022-09-25T12:58:35.992Z,4.22
2022-09-25T12:59:46.507Z,2.60
2022-09-25T13:00:46.949Z,2.40
2022-09-25T13:01:58.904Z,2.30
2022-09-25T13:03:13.813Z,2.28
2022-09-25T13:04:35.240Z,1.50
2022-09-25T13:05:34.530Z,2.05
2022-09-25T13:06:42.586Z,2.00
2022-09-25T13:08:00.574Z,2.03
2022-09-25T13:09:10.426Z,2.35
2022-09-25T13:10:47.452Z,1.70
2022-09-25T13:11:50.969Z,1.67
2022-09-25T13:12:50.046Z,2.10
2022-09-25T13:13:54.015Z,2.03
2022-09-25T13:15:00.162Z,1.80
2022-09-25T13:15:59.425Z,1.60
2022-09-25T13:16:57.453Z,1.60
2022-09-25T13:17:55.811Z,2.00
2022-09-25T13:19:13.249Z,2.10
2022-09-25T13:20:28.558Z,2.10
2022-09-25T13:21:31.628Z,1.70
2022-09-25T13:22:28.291Z,1.77
2022-09-25T13:23:33.683Z,2.08
2022-09-25T13:24:39.096Z,1.88
2022-09-25T13:25:59.763Z,1.58
2022-09-25T13:27:03.460Z,1.95
2022-09-25T13:28:07.621Z,2.42
2022-09-25T13:29:15.075Z,1.70
2022-09-25T13:30:23.853Z,1.70
2022-09-25T13:31:29.653Z,1.95
2022-09-25T13:32:34.779Z,1.75
2022-09-25T13:33:41.769Z,2.03
2022-09-25T13:34:40.641Z,2.05
2022-09-25T13:35:37.241Z,1.80
2022-09-25T13:36:47.545Z,1.80
2022-09-25T13:37:44.463Z,1.63
2022-09-25T13:39:04.531Z,1.75
2022-09-25T13:40:26.419Z,1.90
2022-09-25T13:41:23.032Z,1.75
2022-09-25T13:42:29.959Z,1.80
2022-09-25T13:43:29.205Z,1.83
2022-09-25T13:44:41.276Z,1.38
2022-09-25T13:45:39.663Z,1.95
2022-09-25T13:46:37.730Z,1.60
2022-09-25T13:47:38.517Z,2.20
2022-09-25T13:48:37.614Z,1.75
2022-09-25T13:49:35.801Z,2.20
2022-09-25T13:50:41.256Z,1.67
2022-09-25T13:51:38.125Z,1.63
2022-09-25T13:52:40.612Z,2.00
2022-09-25T13:55:28.072Z,1.25
2022-09-25T13:56:46.337Z,2.10
2022-09-25T13:58:02.087Z,2.00
2022-09-25T13:59:16.127Z,1.90
2022-09-25T14:00:16.463Z,2.05
2022-09-25T14:01:33.363Z,1.90
2022-09-25T14:02:42.211Z,1.85
2022-09-25T14:03:49.635Z,1.77
2022-09-25T14:04:48.710Z,2.00
2022-09-25T14:05:45.428Z,1.77
2022-09-25T14:06:44.766Z,1.65